Bodinumu Airport

BNM · Northern Province, 巴布亚新几内亚

罗盘
风向 的 风向 140°
风: 4 kt, 2 beaufort

添加一条跑道以查看侧风和逆风信息。

添置 跑道
0 ft 1.000 2.000 3.000 4.000 5.000
未检测到零云
METAR YHID 271500Z AUTO 14004KT 9999 // NCD 26/25 Q1005 RF00.0/005.8

METAR Bodinumu Airport - BNM/BNM

Bodinumu Airport是,巴布亚新几内亚中的小机场。 视场标高为3.700 ft。 该领域的国际民航组织标志是BNM 它的国际航空运输协会代码是BNM.

这份报告是针对2023年1月28日 01:00, 当地时间在Horn Island Airport进行的。

机场观察

风向为140°,速度为4 kt。

可见度为10 km 或者更多。

有未检测到零云。 没有观察到天花板。

温度和风寒是26 °C。 露点为25 °C,相对湿度为94%。 海平面上的气压为1005 hPa (QNH)。

白天

今天,太阳从06:05升起,在18:37降落。 这适用于Bodinumu Airport,世界夏令时可能有所不同。 当地时间与世界标准时间之间的时差为+10 小时。 当前,没有夏令时有效。

公司介绍

我们没有关于这个机场的公司信息。

体会

到Vliegles.nl去找飞行课程,跳伞和其他飞行体验。 浏览页面,了解Bodinumu Airport附近所有可用的活动。 你也可以使用搜索功能来寻找你所在地附近的特定飞行课程、跳伞或其他飞行体验。

乌云

- NCD 未检测到零云

温度 & 天气

温度 26 °C
露点 25 °C
相对湿度 94%
Kp-index 1 (0-9)

白天

日出
06:25 (4:51)
中午
12:43
日落
19:01

小工具

你想在你的网站上有一个关于Bodinumu Airport的当前航空天气(METAR)的小部件吗?

显示HTML代码

我们和第三方通过cookies跟踪您在我们网站上的互联网行为。如果你继续,我们认为你同意我们的饼干政策